• Join FlightAware (Why Join?)
  • Login
  • US Flag 
Rudolph Flight #1: Arrived! 
02:45AM EST


 

Airport Tracker/Info


-or-


 

Live Flight TrackerFlight Track Log ✈ SWA868 ✈ 21-Apr-2013 ✈ KTPA - KMHT

Flight Track Log - Related Links

Times and Time Zones

All times are in EDT time to prevent confusion due to time zone crossing. See the SWA868 flight status page for this flight to view local times or setup timezone preferences in your user account.

Time Position Orientation Groundspeed Altitude Reporting Facility
EDT Latitude Longitude Course Direction KTS MPH feet Rate Location/Type
09:26PM 28.0000 -82.5333 358° North 171 197 1,000  Level Tampa TRACON
09:28PM 28.1222 -82.5372 358° North 204 235 7,200 2,760 Climbing Jacksonville Center
09:29PM 28.1953 -82.5533 349° North 238 274 10,300 2,940 Climbing Jacksonville Center
09:30PM 28.2789 -82.5672 352° North 272 313 13,100 2,820 Climbing Jacksonville Center
09:31PM 28.3667 -82.5836 351° North 302 348 16,000 2,940 Climbing Jacksonville Center
09:32PM 28.4625 -82.5856 359° North 328 377 19,000 2,520 Climbing Jacksonville Center
09:33PM 28.5586 -82.5878 359° North 338 389 21,100 1,800 Climbing Jacksonville Center
09:34PM 28.6672 -82.5897 359° North 360 414 22,600 1,680 Climbing Jacksonville Center
09:35PM 28.7797 -82.6036 354° North 384 442 24,500 1,920 Climbing Jacksonville Center
09:36PM 28.8967 -82.6197 353° North 403 464 26,500 1,920 Climbing Jacksonville Center
09:37PM 29.0053 -82.6339 353° North 426 490 28,400 1,560 Climbing Jacksonville Center
09:38PM 29.1286 -82.6525 352° North 439 505 29,700 1,320 Climbing Jacksonville Center
09:39PM 29.2558 -82.6711 353° North 451 519 31,100 1,680 Climbing Jacksonville Center
09:40PM 29.3853 -82.6875 354° North 457 526 33,100 1,800 Climbing Jacksonville Center
09:41PM 29.5169 -82.6969 356° North 464 534 34,800 1,500 Climbing Jacksonville Center
09:42PM 29.6464 -82.6942 North 464 534 36,100 1,080 Climbing Jacksonville Center
09:43PM 29.7800 -82.6939 360° North 464 534 37,000 420 Climbing Jacksonville Center
09:44PM 29.9072 -82.6914 North 459 528 37,000  Level Jacksonville Center
09:45PM 30.0408 -82.6886 North 459 528 37,000  Level Jacksonville Center
09:46PM 30.1703 -82.6883 360° North 459 528 37,000  Level Jacksonville Center
09:47PM 30.3039 -82.6881 360° North 459 528 37,000  Level Jacksonville Center
09:48PM 30.4356 -82.6708 North 464 534 37,000  Level Jacksonville Center
09:49PM 30.5628 -82.6128 21° North 469 540 37,000  Level Jacksonville Center
09:50PM 30.6919 -82.5544 21° North 476 548 37,000  Level Jacksonville Center
09:51PM 30.8214 -82.4958 21° North 488 562 37,000  Level Jacksonville Center
09:52PM 30.9483 -82.4347 22° Northeast 493 567 37,000  Level Jacksonville Center
09:53PM 31.0756 -82.3783 21° North 493 567 37,000  Level Jacksonville Center
09:54PM 31.2047 -82.3194 21° North 493 567 37,000  Level Jacksonville Center
09:55PM 31.3319 -82.2603 22° Northeast 493 567 37,000  Level Jacksonville Center
09:56PM 31.4611 -82.2008 21° North 493 567 37,000  Level Jacksonville Center
09:57PM 31.5900 -82.1389 22° Northeast 493 567 37,000  Level Jacksonville Center
09:58PM 31.7297 -82.0767 21° North 493 567 37,000  Level Jacksonville Center
09:59PM 31.8483 -82.0194 22° Northeast 498 573 37,000  Level Jacksonville Center
10:00PM 31.9919 -81.9544 21° North 498 573 37,000  Level Jacksonville Center
10:01PM 32.1083 -81.8967 23° Northeast 498 573 37,000  Level Jacksonville Center
10:02PM 32.2539 -81.8314 21° North 498 573 37,000  Level Jacksonville Center
10:03PM 32.3869 -81.7658 23° Northeast 503 579 37,000  Level Jacksonville Center
10:04PM 32.5033 -81.7103 22° Northeast 503 579 37,000  Level Jacksonville Center
10:05PM 32.6467 -81.6417 22° Northeast 503 579 37,000  Level Jacksonville Center
10:06PM 32.7653 -81.5858 22° Northeast 508 585 37,000  Level Jacksonville Center
10:07PM 32.8961 -81.5244 22° Northeast 508 585 37,000  Level Jacksonville Center
10:08PM 33.0269 -81.4606 22° Northeast 508 585 37,000  Level Jacksonville Center
10:09PM 33.1575 -81.3964 22° Northeast 508 585 37,000  Level Jacksonville Center
10:10PM 33.2883 -81.3344 22° Northeast 503 579 37,000  Level Jacksonville Center
10:11PM 33.4211 -81.2725 21° North 503 579 37,000  Level Jacksonville Center
10:12PM 33.5517 -81.2078 22° Northeast 508 585 37,000  Level Jacksonville Center
10:13PM 33.6803 -81.1456 22° Northeast 503 579 37,000  Level Jacksonville Center
10:14PM 33.8211 -81.0703 24° Northeast 503 579 37,000  Level Jacksonville Center
10:15PM 33.9242 -80.9831 35° Northeast 494 568 37,000  Level Jacksonville Center
10:16PM 34.0392 -80.8628 41° Northeast 494 568 37,000  Level Jacksonville Center
10:17PM 34.1458 -80.7447 42° Northeast 500 575 37,000  Level Jacksonville Center
10:18PM 34.2500 -80.6267 43° Northeast 505 581 37,000  Level Jacksonville Center
10:19PM 34.3564 -80.5106 42° Northeast 510 587 37,000  Level Jacksonville Center
10:21PM 34.5556 -80.2822 43° Northeast 520 598 37,000  Level Washington Center
10:22PM 34.6603 -80.1647 43° Northeast 513 590 37,000  Level Washington Center
10:23PM 34.7625 -80.0517 42° Northeast 501 577 37,000  Level Washington Center
10:24PM 34.8669 -79.9358 42° Northeast 501 577 37,000  Level Washington Center
10:25PM 34.9711 -79.8222 42° Northeast 501 577 37,000  Level Washington Center
10:26PM 35.0756 -79.7033 43° Northeast 501 577 37,000  Level Washington Center
10:27PM 35.1797 -79.5842 43° Northeast 501 577 37,000  Level Washington Center
10:28PM 35.2817 -79.4672 43° Northeast 501 577 37,000  Level Washington Center
10:29PM 35.3769 -79.3622 42° Northeast 506 582 37,000  Level Washington Center
10:30PM 35.4786 -79.2394 45° Northeast 506 582 37,000  Level Washington Center
10:31PM 35.5931 -79.1119 42° Northeast 506 582 37,000  Level Washington Center
10:32PM 35.6989 -78.9911 43° Northeast 506 582 37,000  Level Washington Center
10:33PM 35.8003 -78.8700 44° Northeast 513 590 37,000  Level Washington Center
10:34PM 35.9097 -78.7567 40° Northeast 513 590 37,000  Level Washington Center
10:35PM 36.0103 -78.6656 36° Northeast 508 585 37,000  Level Washington Center
10:36PM 36.1256 -78.5647 35° Northeast 503 579 37,000  Level Washington Center
10:37PM 36.2386 -78.4633 36° Northeast 503 579 37,000  Level Washington Center
10:38PM 36.3536 -78.3592 36° Northeast 503 579 37,000  Level Washington Center
10:39PM 36.4644 -78.2572 36° Northeast 503 579 37,000  Level Washington Center
10:40PM 36.5772 -78.1550 36° Northeast 503 579 37,000  Level Washington Center
10:41PM 36.6964 -78.0400 38° Northeast 496 571 37,000  Level Washington Center
10:42PM 36.8092 -77.9369 36° Northeast 496 571 37,000  Level Washington Center
10:43PM 36.9239 -77.8289 37° Northeast 496 571 37,000  Level Washington Center
10:44PM 37.0361 -77.7281 36° Northeast 501 577 37,000  Level Washington Center
10:46PM 37.2611 -77.5150 37° Northeast 501 577 37,000  Level Washington Center
10:47PM 37.3731 -77.4108 36° Northeast 501 577 37,000  Level Washington Center
10:48PM 37.4872 -77.3061 36° Northeast 501 577 37,000  Level Washington Center
10:49PM 37.5994 -77.1986 37° Northeast 506 582 37,000  Level Washington Center
10:50PM 37.7114 -77.0881 38° Northeast 506 582 37,000  Level Washington Center
10:51PM 37.8231 -76.9825 37° Northeast 506 582 37,000  Level Washington Center
10:52PM 37.9369 -76.8739 37° Northeast 506 582 37,000  Level Washington Center
10:53PM 38.0508 -76.7625 38° Northeast 511 588 37,000  Level Washington Center
10:54PM 38.1622 -76.6533 38° Northeast 511 588 37,000  Level Washington Center
10:55PM 38.2758 -76.5467 36° Northeast 511 588 37,000  Level Washington Center
10:56PM 38.3725 -76.4497 38° Northeast 506 582 37,000  Level Washington Center
10:57PM 38.4858 -76.3397 37° Northeast 506 582 37,000  Level Washington Center
10:58PM 38.5969 -76.2319 37° Northeast 506 582 37,000  Level Washington Center
10:59PM 38.7161 -76.1211 36° Northeast 516 594 37,000  Level Washington Center
11:00PM 38.8250 -76.0072 39° Northeast 516 594 37,000  Level Washington Center
11:01PM 38.9381 -75.8986 37° Northeast 506 582 37,000  Level Washington Center
11:02PM 39.0486 -75.7867 38° Northeast 506 582 37,000  Level Washington Center
11:03PM 39.1592 -75.6772 37° Northeast 506 582 37,000  Level Washington Center
11:05PM 39.3869 -75.4503 38° Northeast 506 582 37,000  Level New York Center
11:06PM 39.4978 -75.3364 38° Northeast 501 577 37,000  Level New York Center
11:07PM 39.6083 -75.2250 38° Northeast 501 577 37,000  Level New York Center
11:08PM 39.7169 -75.1078 40° Northeast 501 577 37,000  Level New York Center
11:09PM 39.8272 -74.9958 38° Northeast 506 582 37,000  Level New York Center
11:10PM 39.9356 -74.8831 39° Northeast 506 582 37,000  Level New York Center
11:11PM 40.0192 -74.7581 49° Northeast 498 573 37,000  Level New York Center
11:12PM 40.1261 -74.6122 46° Northeast 503 579 37,000  Level New York Center
11:14PM 40.3828 -74.5106 17° North 486 559 37,000  Level Boston Center
11:15PM 40.5086 -74.4736 13° North 474 545 37,000  Level Boston Center
11:16PM 40.6406 -74.4339 13° North 474 545 37,000  Level Boston Center
11:17PM 40.7683 -74.3967 12° North 468 539 37,000  Level Boston Center
11:18PM 40.9022 -74.3650 10° North 474 545 37,000  Level Boston Center
11:19PM 41.0300 -74.3303 12° North 474 545 37,000  Level Boston Center
11:20PM 41.1597 -74.2900 13° North 469 540 37,000  Level Boston Center
11:21PM 41.2750 -74.2492 15° North 469 540 37,000  Level Boston Center
11:22PM 41.4028 -74.2114 13° North 469 540 37,000 -300 Level Boston Center
11:23PM 41.5514 -74.1739 11° North 469 540 36,400 -780 Descending Boston Center
11:24PM 41.7022 -74.1250 14° North 474 545 35,200 -960 Descending Boston Center
11:25PM 41.8550 -74.0789 13° North 463 533 34,100 -1,080 Descending Boston Center
11:26PM 41.9525 -73.9558 43° Northeast 456 525 33,100 -960 Descending Boston Center
11:27PM 42.0317 -73.8014 55° Northeast 466 536 32,200 -960 Descending Boston Center
11:28PM 42.1169 -73.6381 55° Northeast 513 590 31,200 -1,020 Descending Boston Center
11:29PM 42.1956 -73.4825 56° Northeast 503 579 30,200 -1,020 Descending Boston Center
11:30PM 42.2697 -73.3408 55° Northeast 485 558 29,200 -1,500 Descending Boston Center
11:31PM 42.3458 -73.1844 57° Northeast 474 545 27,200 -2,100 Descending Boston Center
11:32PM 42.4175 -73.0419 56° Northeast 474 545 25,000 -2,160 Descending Boston Center
11:33PM 42.4869 -72.9047 56° Northeast 462 532 22,900 -2,040 Descending Boston Center
11:34PM 42.5519 -72.7756 56° Northeast 440 506 21,000 -1,800 Descending Boston Center
11:35PM 42.6022 -72.6742 56° Northeast 422 486 19,400 -1,500 Descending Boston Center
11:36PM 42.6692 -72.5447 55° Northeast 396 456 18,100 -1,800 Descending Boston Center
11:37PM 42.7297 -72.4258 55° Northeast 382 440 15,800 -2,340 Descending Boston Center
11:38PM 42.7858 -72.3100 57° Northeast 377 434 13,500 -2,340 Descending Boston Center
11:39PM 42.8044 -72.1656 80° East 354 407 11,200 -1,680 Descending Boston Center
11:40PM 42.8103 -72.0525 86° East 342 394 10,200 -900 Descending Boston Center
11:41PM 42.8056 -71.9364 93° East 296 341 9,500 -1,080 Descending Boston Center
11:42PM 42.7969 -71.8458 97° East 272 313 8,100 -1,560 Descending Boston Center
11:43PM 42.7900 -71.7356 95° East 266 306 6,400 -1,500 Descending Boston Center
11:44PM 42.7853 -71.6536 94° East 250 288 5,100 -1,380 Descending Boston Center
11:45PM 42.7889 -71.5547 87° East 236 272 3,700 -1,080 Descending Boston Center
11:46PM 42.8008 -71.4836 77° East 215 247 3,000 -480 Descending Boston Center
11:47PM 42.8147 -71.4097 76° East 188 216 2,800 -480 Descending Boston Center
11:48PM 42.8478 -71.3839 30° Northeast 144 166 2,100 -900 Descending Boston Center
11:49PM 42.8897 -71.4086 337° Northwest 137 158 1,000 3,420 Descending Boston Center
11:50PM 42.9189 -71.4281 334° Northwest 142 163 9,000 3,960 Climbing Boston Center
11:51PM 42.9589 -71.4472 341° North 142 163 9,000  Level Boston Center
11:52PM 42.9964 -71.4664 340° North 142 163 9,000  Level Boston Center
11:53PM 43.0319 -71.4886 335° Northwest 142 163 9,000  Level Boston Center
11:55PM 42.9328 -71.4358 170° South  Level Estimated
12:02AM 42.9328 -71.4358 170° South  Level Estimated
12:03AM 42.9328 -71.4358 170° South  Level Estimated
12:04AM 42.9328 -71.4358 170° South  Level Estimated
12:05AM 42.9328 -71.4358 170° South  Level Estimated
12:06AM 42.9328 -71.4358 170° South  Level Estimated